createdAt,value
2023-01-13T00:01:22.039Z,1.10
2023-01-13T00:03:50.468Z,0.80
2023-01-13T00:06:21.420Z,1.20
2023-01-13T00:08:50.576Z,1.58
2023-01-13T00:11:18.975Z,1.20
2023-01-13T00:13:47.383Z,1.10
2023-01-13T00:16:19.099Z,1.20
2023-01-13T00:18:48.540Z,0.90
2023-01-13T00:21:18.666Z,1.23
2023-01-13T00:23:47.431Z,1.00
2023-01-13T00:26:18.950Z,0.93
2023-01-13T00:28:47.570Z,1.65
2023-01-13T00:31:19.074Z,0.90
2023-01-13T00:33:48.975Z,1.00
2023-01-13T00:36:19.704Z,0.93
2023-01-13T00:38:48.135Z,1.00
2023-01-13T00:41:17.577Z,0.93
2023-01-13T00:43:44.647Z,0.90
2023-01-13T00:46:14.529Z,1.17
2023-01-13T00:48:44.573Z,2.08
2023-01-13T00:51:15.333Z,1.00
2023-01-13T00:53:46.368Z,1.30
2023-01-13T00:56:18.115Z,1.58
2023-01-13T00:58:47.248Z,1.10
2023-01-13T01:01:17.932Z,0.90
2023-01-13T01:03:49.006Z,1.23
2023-01-13T01:06:19.004Z,0.90
2023-01-13T01:08:47.181Z,1.02
2023-01-13T01:11:17.218Z,0.98
2023-01-13T01:13:45.523Z,1.00
2023-01-13T01:16:16.546Z,1.10
2023-01-13T01:18:46.949Z,0.90
2023-01-13T01:21:17.955Z,0.90
2023-01-13T01:23:46.900Z,1.00
2023-01-13T01:26:18.008Z,0.90
2023-01-13T01:28:47.052Z,1.10
2023-01-13T01:31:17.640Z,0.80
2023-01-13T01:33:46.447Z,1.02
2023-01-13T01:36:17.746Z,1.88
2023-01-13T01:38:46.369Z,1.00
2023-01-13T01:41:17.044Z,1.30
2023-01-13T01:43:59.395Z,0.98
2023-01-13T01:46:28.941Z,1.10
2023-01-13T01:49:01.652Z,0.80
2023-01-13T01:51:34.883Z,1.10
2023-01-13T01:54:05.747Z,1.00
2023-01-13T01:56:35.520Z,0.95
2023-01-13T01:59:03.787Z,0.90
2023-01-13T02:01:33.355Z,1.17
2023-01-13T02:04:06.645Z,1.00
2023-01-13T02:06:36.582Z,1.08
2023-01-13T02:09:05.139Z,0.90
2023-01-13T02:11:52.066Z,1.05
2023-01-13T02:14:21.446Z,1.10
2023-01-13T02:17:02.577Z,0.95
2023-01-13T02:20:02.413Z,0.90
2023-01-13T02:23:07.397Z,1.75
2023-01-13T02:25:55.777Z,0.80
2023-01-13T02:29:01.502Z,0.95
2023-01-13T02:31:49.553Z,1.05
2023-01-13T02:34:24.184Z,1.00
2023-01-13T02:36:59.152Z,0.80
2023-01-13T02:39:35.112Z,1.10
2023-01-13T02:42:26.940Z,0.88
2023-01-13T02:45:00.660Z,1.00
2023-01-13T02:47:32.787Z,1.00
2023-01-13T02:50:04.802Z,0.90
2023-01-13T02:52:38.714Z,0.93
2023-01-13T02:55:09.890Z,0.80
2023-01-13T02:57:39.205Z,0.80
2023-01-13T03:00:10.466Z,1.00
2023-01-13T03:02:40.794Z,0.85
2023-01-13T03:05:09.464Z,0.90
2023-01-13T03:08:17.757Z,1.33
2023-01-13T03:11:01.207Z,1.00
2023-01-13T03:14:02.949Z,0.90
2023-01-13T03:16:43.943Z,0.90
2023-01-13T03:19:22.841Z,0.90
2023-01-13T03:21:56.857Z,1.00
2023-01-13T03:24:32.762Z,0.90
2023-01-13T03:27:05.478Z,1.15
2023-01-13T03:29:37.629Z,0.95
2023-01-13T03:32:10.422Z,0.80
2023-01-13T03:34:46.378Z,0.80
2023-01-13T03:37:16.220Z,0.90
2023-01-13T03:39:51.400Z,1.02
2023-01-13T03:42:24.045Z,1.00
2023-01-13T03:44:57.766Z,0.90
2023-01-13T03:47:31.721Z,0.90
2023-01-13T03:50:06.877Z,1.05
2023-01-13T03:52:38.005Z,0.88
2023-01-13T03:55:10.319Z,0.90
2023-01-13T03:57:44.697Z,1.58
2023-01-13T04:00:14.704Z,0.80
2023-01-13T04:02:51.017Z,0.90
2023-01-13T04:05:21.923Z,0.90
2023-01-13T04:07:57.168Z,1.10
2023-01-13T04:10:29.768Z,1.13
2023-01-13T04:13:02.530Z,0.90
2023-01-13T04:15:37.495Z,2.05
2023-01-13T04:18:14.747Z,2.88
2023-01-13T04:20:46.668Z,0.90
2023-01-13T04:23:15.421Z,0.90
2023-01-13T04:25:44.785Z,1.80
2023-01-13T04:28:13.399Z,0.95
2023-01-13T04:30:42.626Z,1.00
2023-01-13T04:33:11.187Z,1.10
2023-01-13T04:35:39.723Z,0.98
2023-01-13T04:38:11.176Z,1.13
2023-01-13T04:40:40.234Z,1.40
2023-01-13T04:43:08.773Z,1.08
2023-01-13T04:45:37.218Z,1.58
2023-01-13T04:48:09.011Z,1.98
2023-01-13T04:50:37.188Z,1.13
2023-01-13T04:53:05.722Z,1.50
2023-01-13T04:55:35.797Z,1.23
2023-01-13T04:58:05.460Z,1.05
2023-01-13T05:00:37.686Z,2.03
2023-01-13T05:03:06.500Z,1.98
2023-01-13T05:05:34.870Z,3.15
2023-01-13T05:08:03.619Z,1.95
2023-01-13T05:10:37.209Z,1.70
2023-01-13T05:13:22.621Z,2.38
2023-01-13T05:16:19.388Z,2.38
2023-01-13T05:18:47.606Z,1.55
2023-01-13T05:21:29.617Z,3.00
2023-01-13T05:24:15.169Z,1.60
2023-01-13T05:26:52.323Z,3.20
2023-01-13T05:29:20.767Z,1.92
2023-01-13T05:31:48.642Z,3.97
2023-01-13T05:34:16.927Z,1.40
2023-01-13T05:36:44.802Z,2.25
2023-01-13T05:39:12.922Z,2.78
2023-01-13T05:41:58.458Z,2.67
2023-01-13T05:44:28.396Z,3.70
2023-01-13T05:46:58.381Z,3.92
2023-01-13T05:49:26.412Z,1.58
2023-01-13T05:51:54.591Z,1.83
2023-01-13T05:54:22.603Z,2.03
2023-01-13T05:56:50.806Z,2.53
2023-01-13T05:59:18.798Z,1.40
2023-01-13T06:01:48.391Z,1.70
2023-01-13T06:04:18.555Z,1.30
2023-01-13T06:06:47.178Z,2.90
2023-01-13T06:09:15.418Z,1.13
2023-01-13T06:11:43.295Z,1.98
2023-01-13T06:14:11.717Z,1.92
2023-01-13T06:16:42.433Z,2.38
2023-01-13T06:19:13.082Z,1.20
2023-01-13T06:21:41.772Z,1.15
2023-01-13T06:24:10.560Z,1.40
2023-01-13T06:26:40.810Z,1.80
2023-01-13T06:29:10.165Z,1.23
2023-01-13T06:31:41.540Z,2.17
2023-01-13T06:34:14.927Z,1.20
2023-01-13T06:36:47.590Z,2.40
2023-01-13T06:39:19.116Z,1.75
2023-01-13T06:42:07.580Z,1.77
2023-01-13T06:44:35.880Z,2.50
2023-01-13T06:47:06.443Z,3.20
2023-01-13T06:49:36.166Z,1.30
2023-01-13T06:52:04.566Z,1.45
2023-01-13T06:54:34.548Z,1.33
2023-01-13T06:59:44.966Z,1.15
2023-01-13T07:02:13.185Z,3.28
2023-01-13T07:04:44.630Z,1.30
2023-01-13T07:07:13.152Z,1.55
2023-01-13T07:09:41.239Z,2.13
2023-01-13T07:12:09.442Z,2.80
2023-01-13T07:14:54.828Z,1.95
2023-01-13T07:17:25.446Z,5.22
2023-01-13T07:19:55.309Z,1.75
2023-01-13T07:22:24.623Z,3.00
2023-01-13T07:24:52.718Z,2.28
2023-01-13T07:27:21.085Z,1.98
2023-01-13T07:29:53.663Z,3.50
2023-01-13T07:32:22.100Z,1.63
2023-01-13T07:34:50.326Z,2.97
2023-01-13T07:37:20.068Z,2.35
2023-01-13T07:39:48.194Z,2.83
2023-01-13T07:42:35.332Z,3.45
2023-01-13T07:45:07.819Z,3.35
2023-01-13T07:47:35.897Z,2.38
2023-01-13T07:50:06.786Z,2.75
2023-01-13T07:52:36.723Z,4.10
2023-01-13T07:55:07.900Z,1.42
2023-01-13T07:57:36.053Z,1.58
2023-01-13T08:00:07.870Z,3.00
2023-01-13T08:02:37.903Z,2.88
2023-01-13T08:05:06.774Z,1.35
2023-01-13T08:07:37.052Z,2.60
2023-01-13T08:10:13.626Z,3.67
2023-01-13T08:13:03.877Z,1.95
2023-01-13T08:15:39.518Z,2.75
2023-01-13T08:18:08.107Z,2.47
2023-01-13T08:20:36.551Z,3.55
2023-01-13T08:23:07.993Z,5.05
2023-01-13T08:25:39.406Z,2.17
2023-01-13T08:28:09.882Z,2.35
2023-01-13T08:30:38.005Z,2.35
2023-01-13T08:33:12.442Z,2.42
2023-01-13T08:35:42.127Z,4.03
2023-01-13T08:38:12.124Z,2.90
2023-01-13T08:40:46.213Z,2.65
2023-01-13T08:43:14.715Z,3.83
2023-01-13T08:45:43.122Z,4.03
2023-01-13T08:48:15.643Z,2.55
2023-01-13T08:50:46.228Z,3.28
2023-01-13T08:53:16.771Z,3.50
2023-01-13T08:55:45.068Z,3.03
2023-01-13T08:58:16.493Z,4.22
2023-01-13T09:00:45.763Z,4.35
2023-01-13T09:03:14.121Z,4.55
2023-01-13T09:05:44.021Z,3.58
2023-01-13T09:08:12.672Z,4.93
2023-01-13T09:10:43.934Z,2.72
2023-01-13T09:13:14.434Z,4.40
2023-01-13T09:15:47.449Z,3.00
2023-01-13T09:18:16.034Z,2.78
2023-01-13T09:20:44.634Z,2.20
2023-01-13T09:23:14.386Z,4.15
2023-01-13T09:25:44.354Z,4.40
2023-01-13T09:28:20.273Z,4.90
2023-01-13T09:30:48.736Z,6.53
2023-01-13T09:33:34.276Z,4.95
2023-01-13T09:36:06.152Z,3.05
2023-01-13T09:38:34.540Z,2.92
2023-01-13T09:41:24.794Z,2.95
2023-01-13T09:43:58.313Z,3.42
2023-01-13T09:46:49.341Z,5.35
2023-01-13T09:49:24.046Z,5.25
2023-01-13T09:51:56.899Z,4.18
2023-01-13T09:54:34.074Z,6.65
2023-01-13T09:57:10.964Z,3.88
2023-01-13T09:59:41.715Z,3.70
2023-01-13T10:02:45.522Z,5.90
2023-01-13T10:05:23.859Z,7.28
2023-01-13T10:08:04.645Z,5.22
2023-01-13T10:10:47.135Z,5.88
2023-01-13T10:13:23.064Z,5.40
2023-01-13T10:16:04.059Z,4.55
2023-01-13T10:18:45.067Z,7.20
2023-01-13T10:21:31.541Z,7.53
2023-01-13T10:24:20.308Z,7.40
2023-01-13T10:27:13.164Z,5.40
2023-01-13T10:30:05.406Z,5.40
2023-01-13T10:32:36.883Z,5.47
2023-01-13T10:35:08.267Z,6.97
2023-01-13T10:37:40.423Z,8.40
2023-01-13T10:40:19.681Z,8.55
2023-01-13T10:42:49.677Z,5.30
2023-01-13T10:45:32.430Z,8.57
2023-01-13T10:48:14.227Z,5.05
2023-01-13T10:50:57.223Z,5.63
2023-01-13T10:53:28.704Z,8.15
2023-01-13T10:56:12.464Z,7.47
2023-01-13T10:58:48.479Z,5.90
2023-01-13T11:01:30.718Z,8.18
2023-01-13T11:04:03.575Z,4.15
2023-01-13T11:06:35.027Z,5.68
2023-01-13T11:09:26.283Z,5.55
2023-01-13T11:11:56.623Z,4.22
2023-01-13T11:14:40.690Z,4.22
2023-01-13T11:17:35.975Z,3.33
2023-01-13T11:20:18.795Z,6.80
2023-01-13T11:22:49.922Z,5.03
2023-01-13T11:25:24.145Z,6.57
2023-01-13T11:27:58.352Z,9.82
2023-01-13T11:30:34.035Z,6.70
2023-01-13T11:33:38.235Z,9.10
2023-01-13T11:36:14.695Z,8.88
2023-01-13T11:38:48.860Z,10.82
2023-01-13T11:41:26.574Z,11.45
2023-01-13T11:44:04.213Z,7.63
2023-01-13T11:46:32.951Z,8.77
2023-01-13T11:49:03.994Z,7.70
2023-01-13T11:51:37.596Z,9.77
2023-01-13T11:54:36.948Z,7.97
2023-01-13T11:58:00.795Z,5.72
2023-01-13T12:00:37.793Z,8.25
2023-01-13T12:03:27.033Z,8.43
2023-01-13T12:06:32.370Z,6.38
2023-01-13T12:09:15.456Z,7.25
2023-01-13T12:12:16.626Z,6.75
2023-01-13T12:15:07.604Z,9.40
2023-01-13T12:17:44.487Z,6.25
2023-01-13T12:20:26.594Z,6.63
2023-01-13T12:23:01.349Z,5.70
2023-01-13T12:25:34.893Z,5.80
2023-01-13T12:28:09.732Z,5.43
2023-01-13T12:30:44.161Z,6.50
2023-01-13T12:33:23.314Z,9.45
2023-01-13T12:35:59.991Z,6.80
2023-01-13T12:38:38.374Z,7.00
2023-01-13T12:41:17.832Z,8.55
2023-01-13T12:44:07.287Z,5.85
2023-01-13T12:46:57.111Z,8.73
2023-01-13T12:49:34.581Z,9.02
2023-01-13T12:52:15.509Z,9.57
2023-01-13T12:55:23.197Z,8.32
2023-01-13T12:58:17.572Z,6.97
2023-01-13T13:00:59.286Z,6.80
2023-01-13T13:03:35.753Z,9.05
2023-01-13T13:06:11.569Z,8.73
2023-01-13T13:08:48.471Z,4.68
2023-01-13T13:12:16.821Z,8.70
2023-01-13T13:15:34.099Z,8.07
2023-01-13T13:18:10.522Z,6.80
2023-01-13T13:24:16.205Z,6.45
2023-01-13T13:26:46.838Z,8.20
2023-01-13T13:29:48.143Z,7.97
2023-01-13T13:32:44.545Z,7.30
2023-01-13T13:35:40.494Z,5.20
2023-01-13T13:39:02.496Z,6.65
2023-01-13T13:41:50.207Z,6.63
2023-01-13T13:44:39.818Z,4.78
2023-01-13T13:47:10.568Z,6.60
2023-01-13T13:49:41.891Z,5.47
2023-01-13T13:52:22.446Z,7.43
2023-01-13T13:54:53.789Z,7.50
2023-01-13T13:57:33.634Z,6.95
2023-01-13T14:00:02.591Z,7.85
2023-01-13T14:02:43.666Z,5.18
2023-01-13T14:08:38.760Z,5.63
2023-01-13T14:11:27.436Z,6.63
2023-01-13T14:14:23.203Z,6.15
2023-01-13T14:16:55.202Z,6.65
2023-01-13T14:20:01.074Z,7.90
2023-01-13T14:22:52.039Z,6.95
2023-01-13T14:25:29.117Z,6.10
2023-01-13T14:27:58.077Z,14.55
2023-01-13T15:18:51.548Z,6.43
2023-01-13T15:22:01.945Z,9.02
2023-01-13T15:24:41.925Z,8.50
2023-01-13T15:27:20.009Z,7.85
2023-01-13T15:29:53.174Z,7.80
2023-01-13T15:32:26.396Z,7.65
2023-01-13T15:36:41.113Z,7.93
2023-01-13T15:42:44.872Z,4.20
2023-01-13T15:45:32.215Z,4.55
2023-01-13T15:48:06.020Z,5.95
2023-01-13T15:54:17.094Z,5.85
2023-01-13T15:56:46.156Z,5.40
2023-01-13T15:59:26.063Z,4.88
2023-01-13T16:02:07.497Z,7.55
2023-01-13T16:05:00.009Z,5.57
2023-01-13T16:07:33.377Z,6.70
2023-01-13T16:10:06.363Z,4.57
2023-01-13T16:12:36.986Z,3.78
2023-01-13T16:15:18.473Z,5.53
2023-01-13T16:18:21.113Z,4.88
2023-01-13T16:36:08.962Z,4.80
2023-01-13T16:38:32.623Z,4.28
2023-01-13T16:42:06.784Z,7.10
2023-01-13T16:47:13.391Z,4.80
2023-01-13T17:15:17.607Z,4.70
2023-01-13T17:19:04.237Z,4.68
2023-01-13T17:21:28.459Z,5.63
2023-01-13T17:24:13.315Z,7.00
2023-01-13T17:26:49.173Z,2.78
2023-01-13T17:32:44.093Z,5.18
2023-01-13T17:35:55.065Z,4.97
2023-01-13T17:38:37.905Z,6.18
2023-01-13T17:41:10.055Z,6.43
2023-01-13T17:44:32.132Z,7.15
2023-01-13T17:47:47.429Z,7.22
2023-01-13T17:53:23.363Z,6.35
2023-01-13T18:34:30.913Z,5.13
2023-01-13T20:00:30.372Z,9.20
2023-01-13T20:14:18.459Z,8.05
2023-01-13T20:59:15.517Z,6.18
2023-01-13T21:05:40.721Z,7.25
2023-01-13T21:24:12.247Z,7.15
2023-01-13T21:50:33.512Z,7.38
2023-01-13T21:53:07.921Z,9.35
2023-01-13T21:55:44.257Z,10.55
2023-01-13T21:58:14.227Z,6.65
2023-01-13T22:01:35.710Z,8.43
2023-01-13T22:04:09.641Z,8.65
2023-01-13T22:06:43.715Z,8.63
2023-01-13T22:09:20.381Z,7.32
2023-01-13T22:11:50.639Z,11.68
2023-01-13T22:14:20.272Z,5.45
2023-01-13T22:16:56.836Z,6.05
2023-01-13T22:19:25.257Z,6.57
2023-01-13T22:21:56.110Z,6.78
2023-01-13T22:25:07.186Z,7.30
2023-01-13T22:27:28.744Z,8.32
2023-01-13T22:30:03.478Z,6.68
2023-01-13T22:32:33.117Z,7.13
2023-01-13T22:35:04.819Z,5.50
2023-01-13T22:37:38.113Z,8.77
2023-01-13T22:40:10.596Z,6.63
2023-01-13T22:42:40.986Z,6.55
2023-01-13T22:45:13.051Z,6.63
2023-01-13T22:47:45.081Z,8.60
2023-01-13T22:50:21.075Z,6.40
2023-01-13T22:52:51.117Z,9.52
2023-01-13T22:55:28.513Z,7.15
2023-01-13T22:58:08.178Z,4.95
2023-01-13T23:00:41.130Z,7.43
2023-01-13T23:03:11.258Z,6.68
2023-01-13T23:05:43.462Z,7.05
2023-01-13T23:08:13.865Z,6.63
2023-01-13T23:10:44.000Z,6.45
2023-01-13T23:13:12.314Z,3.70
2023-01-13T23:15:44.500Z,4.55
2023-01-13T23:18:13.938Z,4.43
2023-01-13T23:20:42.481Z,5.22
2023-01-13T23:23:12.544Z,4.28
2023-01-13T23:25:51.044Z,6.55
2023-01-13T23:28:22.013Z,4.50
2023-01-13T23:30:53.231Z,4.70
2023-01-13T23:33:23.124Z,4.88
2023-01-13T23:35:57.887Z,6.75
2023-01-13T23:38:29.889Z,5.47
2023-01-13T23:41:00.005Z,3.38
2023-01-13T23:43:28.999Z,7.82
2023-01-13T23:46:03.697Z,6.35
2023-01-13T23:48:39.036Z,7.22
2023-01-13T23:51:12.350Z,5.35
2023-01-13T23:53:46.705Z,4.78
2023-01-13T23:56:17.307Z,5.40
2023-01-13T23:58:46.209Z,6.43
